sensor_id;sensor_type;location;lat;lon;timestamp;pressure;altitude;pressure_sealevel;temperature
72278;BMP280;61204;49.980;8.358;2022-12-20T00:01:08;101136.28;;;1.23
72278;BMP280;61204;49.980;8.358;2022-12-20T00:03:36;101128.41;;;1.19
72278;BMP280;61204;49.980;8.358;2022-12-20T00:06:02;101121.06;;;1.20
72278;BMP280;61204;49.980;8.358;2022-12-20T00:08:29;101125.22;;;1.21
72278;BMP280;61204;49.980;8.358;2022-12-20T00:10:55;101113.44;;;1.24
72278;BMP280;61204;49.980;8.358;2022-12-20T00:13:24;101107.56;;;1.26
72278;BMP280;61204;49.980;8.358;2022-12-20T00:15:49;101107.56;;;1.26
72278;BMP280;61204;49.980;8.358;2022-12-20T00:18:15;101118.59;;;1.28
72278;BMP280;61204;49.980;8.358;2022-12-20T00:20:40;101107.78;;;1.28
72278;BMP280;61204;49.980;8.358;2022-12-20T00:23:05;101098.94;;;1.27
72278;BMP280;61204;49.980;8.358;2022-12-20T00:25:31;101107.78;;;1.28
72278;BMP280;61204;49.980;8.358;2022-12-20T00:27:56;101100.91;;;1.27
72278;BMP280;61204;49.980;8.358;2022-12-20T00:30:22;101113.44;;;1.18
72278;BMP280;61204;49.980;8.358;2022-12-20T00:32:47;101099.22;;;1.18
72278;BMP280;61204;49.980;8.358;2022-12-20T00:35:13;101097.75;;;1.11
72278;BMP280;61204;49.980;8.358;2022-12-20T00:37:38;101096.75;;;1.14
72278;BMP280;61204;49.980;8.358;2022-12-20T00:40:04;101090.09;;;1.10
72278;BMP280;61204;49.980;8.358;2022-12-20T00:42:31;101091.84;;;1.07
72278;BMP280;61204;49.980;8.358;2022-12-20T00:44:57;101093.56;;;1.10
72278;BMP280;61204;49.980;8.358;2022-12-20T00:47:22;101098.72;;;1.14
72278;BMP280;61204;49.980;8.358;2022-12-20T00:49:48;101091.59;;;1.16
72278;BMP280;61204;49.980;8.358;2022-12-20T00:52:13;101084.47;;;1.19
72278;BMP280;61204;49.980;8.358;2022-12-20T00:54:39;101083.97;;;1.20
72278;BMP280;61204;49.980;8.358;2022-12-20T00:57:05;101078.81;;;1.22
72278;BMP280;61204;49.980;8.358;2022-12-20T00:59:31;101084.44;;;1.25
72278;BMP280;61204;49.980;8.358;2022-12-20T01:01:58;101087.41;;;1.27
72278;BMP280;61204;49.980;8.358;2022-12-20T01:04:23;101087.41;;;1.27
72278;BMP280;61204;49.980;8.358;2022-12-20T01:06:48;101096.50;;;1.29
72278;BMP280;61204;49.980;8.358;2022-12-20T01:09:14;101097.97;;;1.30
72278;BMP280;61204;49.980;8.358;2022-12-20T01:11:39;101087.88;;;1.31
72278;BMP280;61204;49.980;8.358;2022-12-20T01:14:06;101081.00;;;1.30
72278;BMP280;61204;49.980;8.358;2022-12-20T01:16:38;101080.28;;;1.29
72278;BMP280;61204;49.980;8.358;2022-12-20T01:19:07;101074.13;;;1.29
72278;BMP280;61204;49.980;8.358;2022-12-20T01:21:35;101081.25;;;1.32
72278;BMP280;61204;49.980;8.358;2022-12-20T01:24:08;101084.66;;;1.32
72278;BMP280;61204;49.980;8.358;2022-12-20T01:26:35;101096.25;;;1.33
72278;BMP280;61204;49.980;8.358;2022-12-20T01:29:01;101097.72;;;1.34
72278;BMP280;61204;49.980;8.358;2022-12-20T01:31:27;101086.66;;;1.32
72278;BMP280;61204;49.980;8.358;2022-12-20T01:33:53;101081.25;;;1.26
72278;BMP280;61204;49.980;8.358;2022-12-20T01:36:20;101091.81;;;1.30
72278;BMP280;61204;49.980;8.358;2022-12-20T01:38:55;101081.97;;;1.32
72278;BMP280;61204;49.980;8.358;2022-12-20T01:41:26;101082.72;;;1.33
72278;BMP280;61204;49.980;8.358;2022-12-20T01:43:56;101077.53;;;1.35
72278;BMP280;61204;49.980;8.358;2022-12-20T01:46:42;101073.59;;;1.36
72278;BMP280;61204;49.980;8.358;2022-12-20T01:51:50;101073.09;;;1.37
72278;BMP280;61204;49.980;8.358;2022-12-20T01:54:25;101075.06;;;1.37
72278;BMP280;61204;49.980;8.358;2022-12-20T01:57:01;101062.31;;;1.37
72278;BMP280;61204;49.980;8.358;2022-12-20T01:59:35;101055.41;;;1.36
72278;BMP280;61204;49.980;8.358;2022-12-20T02:02:06;101058.59;;;1.35
72278;BMP280;61204;49.980;8.358;2022-12-20T02:04:36;101040.72;;;1.32
72278;BMP280;61204;49.980;8.358;2022-12-20T02:07:03;101034.34;;;1.29
72278;BMP280;61204;49.980;8.358;2022-12-20T02:09:30;101031.16;;;1.25
72278;BMP280;61204;49.980;8.358;2022-12-20T02:12:10;101038.78;;;1.27
72278;BMP280;61204;49.980;8.358;2022-12-20T02:20:54;101022.81;;;1.23
72278;BMP280;61204;49.980;8.358;2022-12-20T02:35:25;101009.81;;;1.16
72278;BMP280;61204;49.980;8.358;2022-12-20T02:37:55;101007.13;;;1.16
72278;BMP280;61204;49.980;8.358;2022-12-20T02:40:26;101014.72;;;1.17
72278;BMP280;61204;49.980;8.358;2022-12-20T02:43:06;100999.75;;;1.16
72278;BMP280;61204;49.980;8.358;2022-12-20T02:45:53;100995.31;;;1.19
72278;BMP280;61204;49.980;8.358;2022-12-20T02:48:24;100992.84;;;1.21
72278;BMP280;61204;49.980;8.358;2022-12-20T02:50:54;100990.91;;;1.21
72278;BMP280;61204;49.980;8.358;2022-12-20T02:53:24;100988.94;;;1.22
72278;BMP280;61204;49.980;8.358;2022-12-20T02:55:56;100989.66;;;1.22
72278;BMP280;61204;49.980;8.358;2022-12-20T02:58:38;100995.56;;;1.21
72278;BMP280;61204;49.980;8.358;2022-12-20T03:01:22;100996.31;;;1.21
72278;BMP280;61204;49.980;8.358;2022-12-20T03:03:54;100986.97;;;1.17
72278;BMP280;61204;49.980;8.358;2022-12-20T03:06:22;101003.19;;;1.17
72278;BMP280;61204;49.980;8.358;2022-12-20T03:08:48;100999.50;;;1.20
72278;BMP280;61204;49.980;8.358;2022-12-20T03:11:14;101000.47;;;1.22
72278;BMP280;61204;49.980;8.358;2022-12-20T03:13:39;100994.09;;;1.20
72278;BMP280;61204;49.980;8.358;2022-12-20T03:16:05;100997.28;;;1.18
72278;BMP280;61204;49.980;8.358;2022-12-20T03:18:31;100981.31;;;1.26
72278;BMP280;61204;49.980;8.358;2022-12-20T03:20:57;100976.88;;;1.23
72278;BMP280;61204;49.980;8.358;2022-12-20T03:23:23;100972.47;;;1.26
72278;BMP280;61204;49.980;8.358;2022-12-20T03:25:48;100969.75;;;1.31
72278;BMP280;61204;49.980;8.358;2022-12-20T03:28:14;100975.13;;;1.31
72278;BMP280;61204;49.980;8.358;2022-12-20T03:30:39;100971.19;;;1.32
72278;BMP280;61204;49.980;8.358;2022-12-20T03:33:05;100959.38;;;1.35
72278;BMP280;61204;49.980;8.358;2022-12-20T03:35:30;100957.66;;;1.38
72278;BMP280;61204;49.980;8.358;2022-12-20T03:37:56;100953.50;;;1.37
72278;BMP280;61204;49.980;8.358;2022-12-20T03:40:21;100955.16;;;1.40
72278;BMP280;61204;49.980;8.358;2022-12-20T03:42:47;100955.16;;;1.40
72278;BMP280;61204;49.980;8.358;2022-12-20T03:45:12;100945.34;;;1.42
72278;BMP280;61204;49.980;8.358;2022-12-20T03:47:38;100942.63;;;1.42
72278;BMP280;61204;49.980;8.358;2022-12-20T03:50:04;100939.44;;;1.44
72278;BMP280;61204;49.980;8.358;2022-12-20T03:52:31;100955.66;;;1.44
72278;BMP280;61204;49.980;8.358;2022-12-20T03:54:56;100973.81;;;1.43
72278;BMP280;61204;49.980;8.358;2022-12-20T03:57:22;100981.91;;;1.49
72278;BMP280;61204;49.980;8.358;2022-12-20T03:59:47;100973.31;;;1.51
72278;BMP280;61204;49.980;8.358;2022-12-20T04:02:13;100953.19;;;1.46
72278;BMP280;61204;49.980;8.358;2022-12-20T04:04:38;100954.19;;;1.43
72278;BMP280;61204;49.980;8.358;2022-12-20T04:07:04;100962.53;;;1.39
72278;BMP280;61204;49.980;8.358;2022-12-20T04:09:29;100964.50;;;1.39
72278;BMP280;61204;49.980;8.358;2022-12-20T04:11:55;100966.50;;;1.38
72278;BMP280;61204;49.980;8.358;2022-12-20T04:14:20;100971.38;;;1.40
72278;BMP280;61204;49.980;8.358;2022-12-20T04:16:46;100964.03;;;1.40
72278;BMP280;61204;49.980;8.358;2022-12-20T04:19:11;100969.19;;;1.38
72278;BMP280;61204;49.980;8.358;2022-12-20T04:21:37;100959.84;;;1.39
72278;BMP280;61204;49.980;8.358;2022-12-20T04:24:03;100958.63;;;1.35
72278;BMP280;61204;49.980;8.358;2022-12-20T04:26:29;100944.19;;;1.32
72278;BMP280;61204;49.980;8.358;2022-12-20T04:28:55;100940.75;;;1.32
72278;BMP280;61204;49.980;8.358;2022-12-20T04:31:20;100935.84;;;1.30
72278;BMP280;61204;49.980;8.358;2022-12-20T04:33:46;100933.41;;;1.27
72278;BMP280;61204;49.980;8.358;2022-12-20T04:36:12;100922.63;;;1.21
72278;BMP280;61204;49.980;8.358;2022-12-20T04:38:38;100914.56;;;1.15
72278;BMP280;61204;49.980;8.358;2022-12-20T04:41:03;100907.44;;;1.12
72278;BMP280;61204;49.980;8.358;2022-12-20T04:43:29;100902.06;;;1.07
72278;BMP280;61204;49.980;8.358;2022-12-20T04:45:55;100916.56;;;1.04
72278;BMP280;61204;49.980;8.358;2022-12-20T04:48:21;100911.38;;;1.06
72278;BMP280;61204;49.980;8.358;2022-12-20T04:50:53;100921.72;;;1.07
72278;BMP280;61204;49.980;8.358;2022-12-20T04:53:20;100927.59;;;1.11
72278;BMP280;61204;49.980;8.358;2022-12-20T04:56:06;100926.81;;;1.16
72278;BMP280;61204;49.980;8.358;2022-12-20T04:58:32;100927.81;;;1.19
72278;BMP280;61204;49.980;8.358;2022-12-20T05:00:57;100933.66;;;1.23
72278;BMP280;61204;49.980;8.358;2022-12-20T05:03:23;100933.16;;;1.25
72278;BMP280;61204;49.980;8.358;2022-12-20T05:05:50;100921.38;;;1.28
72278;BMP280;61204;49.980;8.358;2022-12-20T05:08:17;100924.53;;;1.32
72278;BMP280;61204;49.980;8.358;2022-12-20T05:10:43;100924.78;;;1.34
72278;BMP280;61204;49.980;8.358;2022-12-20T05:13:09;100916.88;;;1.36
72278;BMP280;61204;49.980;8.358;2022-12-20T05:15:34;100920.56;;;1.38
72278;BMP280;61204;49.980;8.358;2022-12-20T05:18:00;100918.09;;;1.40
72278;BMP280;61204;49.980;8.358;2022-12-20T05:20:26;100921.75;;;1.43
72278;BMP280;61204;49.980;8.358;2022-12-20T05:22:55;100920.75;;;1.46
72278;BMP280;61204;49.980;8.358;2022-12-20T05:25:41;100928.66;;;1.44
72278;BMP280;61204;49.980;8.358;2022-12-20T05:28:34;100926.44;;;1.42
72278;BMP280;61204;49.980;8.358;2022-12-20T05:31:00;100918.59;;;1.39
72278;BMP280;61204;49.980;8.358;2022-12-20T05:33:27;100920.31;;;1.36
72278;BMP280;61204;49.980;8.358;2022-12-20T05:35:53;100918.81;;;1.41
72278;BMP280;61204;49.980;8.358;2022-12-20T05:38:19;100908.97;;;1.43
72278;BMP280;61204;49.980;8.358;2022-12-20T05:40:46;100902.34;;;1.44
72278;BMP280;61204;49.980;8.358;2022-12-20T05:43:13;100917.84;;;1.44
72278;BMP280;61204;49.980;8.358;2022-12-20T05:45:44;100905.31;;;1.41
72278;BMP280;61204;49.980;8.358;2022-12-20T05:48:14;100905.06;;;1.44
72278;BMP280;61204;49.980;8.358;2022-12-20T05:50:42;100887.34;;;1.43
72278;BMP280;61204;49.980;8.358;2022-12-20T05:53:12;100893.00;;;1.45
72278;BMP280;61204;49.980;8.358;2022-12-20T05:55:47;100885.63;;;1.46
72278;BMP280;61204;49.980;8.358;2022-12-20T05:58:15;100883.16;;;1.48
72278;BMP280;61204;49.980;8.358;2022-12-20T06:00:40;100887.81;;;1.47
72278;BMP280;61204;49.980;8.358;2022-12-20T06:03:07;100879.44;;;1.51
72278;BMP280;61204;49.980;8.358;2022-12-20T06:05:36;100871.59;;;1.47
72278;BMP280;61204;49.980;8.358;2022-12-20T06:08:03;100861.78;;;1.50
72278;BMP280;61204;49.980;8.358;2022-12-20T06:10:31;100855.19;;;1.45
72278;BMP280;61204;49.980;8.358;2022-12-20T06:12:58;100871.59;;;1.47
72278;BMP280;61204;49.980;8.358;2022-12-20T06:15:25;100875.06;;;1.48
72278;BMP280;61204;49.980;8.358;2022-12-20T06:17:51;100874.81;;;1.52
72278;BMP280;61204;49.980;8.358;2022-12-20T06:20:16;100873.03;;;1.54
72278;BMP280;61204;49.980;8.358;2022-12-20T06:22:42;100872.03;;;1.57
72278;BMP280;61204;49.980;8.358;2022-12-20T06:25:08;100877.22;;;1.55
72278;BMP280;61204;49.980;8.358;2022-12-20T06:27:34;100864.44;;;1.56
72278;BMP280;61204;49.980;8.358;2022-12-20T06:30:02;100869.59;;;1.54
72278;BMP280;61204;49.980;8.358;2022-12-20T06:32:34;100879.91;;;1.55
72278;BMP280;61204;49.980;8.358;2022-12-20T06:35:00;100901.78;;;1.57
72278;BMP280;61204;49.980;8.358;2022-12-20T06:37:26;100889.72;;;1.58
72278;BMP280;61204;49.980;8.358;2022-12-20T06:39:54;100897.84;;;1.58
72278;BMP280;61204;49.980;8.358;2022-12-20T06:42:20;100902.75;;;1.60
72278;BMP280;61204;49.980;8.358;2022-12-20T06:44:45;100899.78;;;1.63
72278;BMP280;61204;49.980;8.358;2022-12-20T06:47:11;100906.66;;;1.64
72278;BMP280;61204;49.980;8.358;2022-12-20T06:49:36;100897.53;;;1.67
72278;BMP280;61204;49.980;8.358;2022-12-20T06:52:02;100897.75;;;1.69
72278;BMP280;61204;49.980;8.358;2022-12-20T06:54:27;100904.34;;;1.74
72278;BMP280;61204;49.980;8.358;2022-12-20T06:56:53;100894.75;;;1.79
72278;BMP280;61204;49.980;8.358;2022-12-20T06:59:18;100894.97;;;1.81
72278;BMP280;61204;49.980;8.358;2022-12-20T07:01:44;100887.31;;;1.85
72278;BMP280;61204;49.980;8.358;2022-12-20T07:04:09;100880.72;;;1.86
72278;BMP280;61204;49.980;8.358;2022-12-20T07:06:35;100891.53;;;1.86
72278;BMP280;61204;49.980;8.358;2022-12-20T07:09:00;100896.94;;;1.86
72278;BMP280;61204;49.980;8.358;2022-12-20T07:11:26;100896.94;;;1.86
72278;BMP280;61204;49.980;8.358;2022-12-20T07:13:54;100884.88;;;1.87
72278;BMP280;61204;49.980;8.358;2022-12-20T07:16:20;100877.03;;;1.83
72278;BMP280;61204;49.980;8.358;2022-12-20T07:18:49;100878.50;;;1.84
72278;BMP280;61204;49.980;8.358;2022-12-20T07:21:17;100871.91;;;1.80
72278;BMP280;61204;49.980;8.358;2022-12-20T07:23:44;100862.06;;;1.77
72278;BMP280;61204;49.980;8.358;2022-12-20T07:26:11;100854.94;;;1.79
72278;BMP280;61204;49.980;8.358;2022-12-20T07:28:38;100856.56;;;1.88
72278;BMP280;61204;49.980;8.358;2022-12-20T07:31:04;100855.56;;;1.91
72278;BMP280;61204;49.980;8.358;2022-12-20T07:33:30;100870.25;;;1.95
72278;BMP280;61204;49.980;8.358;2022-12-20T07:36:03;100881.03;;;2.01
72278;BMP280;61204;49.980;8.358;2022-12-20T07:38:35;100868.69;;;2.06
72278;BMP280;61204;49.980;8.358;2022-12-20T07:41:14;100872.66;;;2.05
72278;BMP280;61204;49.980;8.358;2022-12-20T07:43:42;100862.03;;;2.07
72278;BMP280;61204;49.980;8.358;2022-12-20T07:46:14;100866.44;;;2.10
72278;BMP280;61204;49.980;8.358;2022-12-20T07:48:41;100866.91;;;2.14
72278;BMP280;61204;49.980;8.358;2022-12-20T07:51:09;100868.38;;;2.15
72278;BMP280;61204;49.980;8.358;2022-12-20T07:53:43;100866.94;;;2.08
72278;BMP280;61204;49.980;8.358;2022-12-20T07:56:16;100857.38;;;2.07
72278;BMP280;61204;49.980;8.358;2022-12-20T07:58:46;100844.84;;;2.04
72278;BMP280;61204;49.980;8.358;2022-12-20T08:01:16;100836.09;;;1.92
72278;BMP280;61204;49.980;8.358;2022-12-20T08:03:44;100837.97;;;2.03
72278;BMP280;61204;49.980;8.358;2022-12-20T08:06:17;100839.69;;;2.06
72278;BMP280;61204;49.980;8.358;2022-12-20T08:08:45;100838.41;;;2.13
72278;BMP280;61204;49.980;8.358;2022-12-20T08:11:15;100844.19;;;2.22
72278;BMP280;61204;49.980;8.358;2022-12-20T08:13:42;100843.84;;;2.32
72278;BMP280;61204;49.980;8.358;2022-12-20T08:16:09;100839.97;;;2.46
72278;BMP280;61204;49.980;8.358;2022-12-20T08:18:34;100837.44;;;2.54
72278;BMP280;61204;49.980;8.358;2022-12-20T08:21:00;100823.25;;;2.66
72278;BMP280;61204;49.980;8.358;2022-12-20T08:23:25;100833.00;;;2.75
72278;BMP280;61204;49.980;8.358;2022-12-20T08:25:51;100833.13;;;2.83
72278;BMP280;61204;49.980;8.358;2022-12-20T08:28:16;100834.25;;;2.93
72278;BMP280;61204;49.980;8.358;2022-12-20T08:30:42;100824.22;;;2.88
72278;BMP280;61204;49.980;8.358;2022-12-20T08:33:07;100831.75;;;2.95
72278;BMP280;61204;49.980;8.358;2022-12-20T08:35:33;100821.56;;;3.01
72278;BMP280;61204;49.980;8.358;2022-12-20T08:37:58;100811.63;;;2.90
72278;BMP280;61204;49.980;8.358;2022-12-20T08:40:24;100813.31;;;2.93
72278;BMP280;61204;49.980;8.358;2022-12-20T08:42:49;100815.28;;;2.93
72278;BMP280;61204;49.980;8.358;2022-12-20T08:45:14;100810.09;;;2.95
72278;BMP280;61204;49.980;8.358;2022-12-20T08:47:40;100812.69;;;3.01
72278;BMP280;61204;49.980;8.358;2022-12-20T08:50:06;100832.41;;;3.01
72278;BMP280;61204;49.980;8.358;2022-12-20T08:52:32;100832.81;;;3.05
72278;BMP280;61204;49.980;8.358;2022-12-20T08:54:57;100826.69;;;3.05
72278;BMP280;61204;49.980;8.358;2022-12-20T08:57:23;100834.00;;;3.10
72278;BMP280;61204;49.980;8.358;2022-12-20T08:59:48;100831.72;;;3.14
72278;BMP280;61204;49.980;8.358;2022-12-20T09:02:14;100841.97;;;3.21
72278;BMP280;61204;49.980;8.358;2022-12-20T09:04:39;100847.63;;;3.23
72278;BMP280;61204;49.980;8.358;2022-12-20T09:07:05;100831.53;;;3.25
72278;BMP280;61204;49.980;8.358;2022-12-20T09:09:30;100831.47;;;3.31
72278;BMP280;61204;49.980;8.358;2022-12-20T09:11:56;100830.00;;;3.30
72278;BMP280;61204;49.980;8.358;2022-12-20T09:14:22;100836.59;;;3.34
72278;BMP280;61204;49.980;8.358;2022-12-20T09:16:48;100828.91;;;3.38
72278;BMP280;61204;49.980;8.358;2022-12-20T09:19:13;100826.91;;;3.39
72278;BMP280;61204;49.980;8.358;2022-12-20T09:21:39;100819.31;;;3.37
72278;BMP280;61204;49.980;8.358;2022-12-20T09:24:04;100823.91;;;3.42
72278;BMP280;61204;49.980;8.358;2022-12-20T09:26:31;100830.88;;;3.51
72278;BMP280;61204;49.980;8.358;2022-12-20T09:28:59;100824.75;;;3.51
72278;BMP280;61204;49.980;8.358;2022-12-20T09:31:26;100831.75;;;3.46
72278;BMP280;61204;49.980;8.358;2022-12-20T09:33:52;100831.94;;;3.48
72278;BMP280;61204;49.980;8.358;2022-12-20T09:36:22;100821.50;;;3.52
72278;BMP280;61204;49.980;8.358;2022-12-20T09:38:50;100805.22;;;3.52
72278;BMP280;61204;49.980;8.358;2022-12-20T09:41:27;100810.16;;;3.54
72278;BMP280;61204;49.980;8.358;2022-12-20T09:43:59;100817.59;;;3.66
72278;BMP280;61204;49.980;8.358;2022-12-20T09:46:36;100808.66;;;3.71
72278;BMP280;61204;49.980;8.358;2022-12-20T09:49:04;100802.56;;;3.79
72278;BMP280;61204;49.980;8.358;2022-12-20T10:00:15;100795.38;;;3.81
72278;BMP280;61204;49.980;8.358;2022-12-20T10:03:04;100796.03;;;3.87
72278;BMP280;61204;49.980;8.358;2022-12-20T10:05:47;100794.69;;;3.94
72278;BMP280;61204;49.980;8.358;2022-12-20T10:08:36;100785.34;;;4.03
72278;BMP280;61204;49.980;8.358;2022-12-20T10:16:57;100793.88;;;4.20
72278;BMP280;61204;49.980;8.358;2022-12-20T10:27:48;100783.78;;;4.20
72278;BMP280;61204;49.980;8.358;2022-12-20T10:30:19;100778.84;;;4.19
72278;BMP280;61204;49.980;8.358;2022-12-20T10:32:48;100785.22;;;4.21
72278;BMP280;61204;49.980;8.358;2022-12-20T10:35:36;100783.34;;;4.30
72278;BMP280;61204;49.980;8.358;2022-12-20T10:38:06;100772.38;;;4.35
72278;BMP280;61204;49.980;8.358;2022-12-20T10:40:45;100781.47;;;4.38
72278;BMP280;61204;49.980;8.358;2022-12-20T10:43:41;100773.59;;;4.47
72278;BMP280;61204;49.980;8.358;2022-12-20T10:46:10;100784.75;;;4.57
72278;BMP280;61204;49.980;8.358;2022-12-20T10:48:41;100767.78;;;4.64
72278;BMP280;61204;49.980;8.358;2022-12-20T10:53:34;100753.16;;;4.67
72278;BMP280;61204;49.980;8.358;2022-12-20T10:56:20;100757.56;;;4.70
72278;BMP280;61204;49.980;8.358;2022-12-20T10:58:59;100743.09;;;4.75
72278;BMP280;61204;49.980;8.358;2022-12-20T11:01:28;100744.59;;;4.84
72278;BMP280;61204;49.980;8.358;2022-12-20T11:04:00;100748.06;;;4.85
72278;BMP280;61204;49.980;8.358;2022-12-20T11:06:44;100733.22;;;4.86
72278;BMP280;61204;49.980;8.358;2022-12-20T11:09:27;100732.19;;;4.89
72278;BMP280;61204;49.980;8.358;2022-12-20T11:12:08;100733.03;;;5.05
72278;BMP280;61204;49.980;8.358;2022-12-20T11:14:41;100721.31;;;5.17
72278;BMP280;61204;49.980;8.358;2022-12-20T11:33:49;100703.09;;;5.62
72278;BMP280;61204;49.980;8.358;2022-12-20T11:39:29;100681.75;;;5.73
72278;BMP280;61204;49.980;8.358;2022-12-20T11:42:57;100682.81;;;5.70
72278;BMP280;61204;49.980;8.358;2022-12-20T11:45:20;100683.44;;;5.84
72278;BMP280;61204;49.980;8.358;2022-12-20T11:48:15;100673.84;;;5.91
72278;BMP280;61204;49.980;8.358;2022-12-20T11:53:49;100666.72;;;5.80
72278;BMP280;61204;49.980;8.358;2022-12-20T11:59:19;100659.81;;;5.79
72278;BMP280;61204;49.980;8.358;2022-12-20T12:02:12;100665.84;;;5.85
72278;BMP280;61204;49.980;8.358;2022-12-20T12:04:55;100654.47;;;6.02
72278;BMP280;61204;49.980;8.358;2022-12-20T12:07:28;100651.19;;;6.03
72278;BMP280;61204;49.980;8.358;2022-12-20T12:12:39;100654.25;;;6.00
72278;BMP280;61204;49.980;8.358;2022-12-20T12:18:00;100645.13;;;5.82
72278;BMP280;61204;49.980;8.358;2022-12-20T12:26:26;100633.41;;;6.02
72278;BMP280;61204;49.980;8.358;2022-12-20T12:28:59;100633.19;;;5.93
72278;BMP280;61204;49.980;8.358;2022-12-20T12:34:43;100620.53;;;6.03
72278;BMP280;61204;49.980;8.358;2022-12-20T12:46:15;100612.88;;;5.94
72278;BMP280;61204;49.980;8.358;2022-12-20T12:48:53;100600.19;;;5.96
72278;BMP280;61204;49.980;8.358;2022-12-20T12:51:21;100592.56;;;5.95
72278;BMP280;61204;49.980;8.358;2022-12-20T12:54:03;100592.22;;;5.98
72278;BMP280;61204;49.980;8.358;2022-12-20T12:56:46;100586.94;;;6.00
72278;BMP280;61204;49.980;8.358;2022-12-20T12:59:21;100586.59;;;6.04
72278;BMP280;61204;49.980;8.358;2022-12-20T13:10:00;100585.88;;;6.42
72278;BMP280;61204;49.980;8.358;2022-12-20T13:17:51;100584.59;;;6.58
72278;BMP280;61204;49.980;8.358;2022-12-20T13:20:34;100583.66;;;6.63
72278;BMP280;61204;49.980;8.358;2022-12-20T13:25:31;100582.75;;;6.68
72278;BMP280;61204;49.980;8.358;2022-12-20T13:30:43;100575.81;;;6.82
72278;BMP280;61204;49.980;8.358;2022-12-20T13:33:38;100583.78;;;6.88
72278;BMP280;61204;49.980;8.358;2022-12-20T13:38:39;100579.06;;;6.89
72278;BMP280;61204;49.980;8.358;2022-12-20T13:46:54;100593.59;;;6.99
72278;BMP280;61204;49.980;8.358;2022-12-20T13:49:26;100594.16;;;6.97
72278;BMP280;61204;49.980;8.358;2022-12-20T13:54:39;100596.84;;;7.05
72278;BMP280;61204;49.980;8.358;2022-12-20T13:57:43;100585.25;;;6.97
72278;BMP280;61204;49.980;8.358;2022-12-20T14:00:18;100582.16;;;6.93
72278;BMP280;61204;49.980;8.358;2022-12-20T14:02:50;100570.34;;;6.90
72278;BMP280;61204;49.980;8.358;2022-12-20T14:05:21;100571.06;;;6.91
72278;BMP280;61204;49.980;8.358;2022-12-20T14:08:11;100555.47;;;6.83
72278;BMP280;61204;49.980;8.358;2022-12-20T14:10:42;100552.19;;;6.85
72278;BMP280;61204;49.980;8.358;2022-12-20T14:13:18;100557.88;;;6.72
72278;BMP280;61204;49.980;8.358;2022-12-20T14:15:46;100555.16;;;6.56
72278;BMP280;61204;49.980;8.358;2022-12-20T14:18:19;100552.28;;;6.24
72278;BMP280;61204;49.980;8.358;2022-12-20T14:21:08;100551.22;;;6.19
72278;BMP280;61204;49.980;8.358;2022-12-20T14:23:36;100557.91;;;6.26
72278;BMP280;61204;49.980;8.358;2022-12-20T14:26:06;100558.44;;;6.24
72278;BMP280;61204;49.980;8.358;2022-12-20T14:28:45;100556.63;;;6.35
72278;BMP280;61204;49.980;8.358;2022-12-20T14:31:24;100556.28;;;6.38
72278;BMP280;61204;49.980;8.358;2022-12-20T14:34:00;100555.91;;;6.42
72278;BMP280;61204;49.980;8.358;2022-12-20T14:36:30;100550.84;;;6.46
72278;BMP280;61204;49.980;8.358;2022-12-20T14:38:56;100552.63;;;6.51
72278;BMP280;61204;49.980;8.358;2022-12-20T14:41:29;100546.63;;;6.52
72278;BMP280;61204;49.980;8.358;2022-12-20T14:46:50;100532.50;;;6.31
72278;BMP280;61204;49.980;8.358;2022-12-20T14:54:46;100523.44;;;6.13
72278;BMP280;61204;49.980;8.358;2022-12-20T15:08:36;100513.44;;;5.77
72278;BMP280;61204;49.980;8.358;2022-12-20T15:11:00;100520.53;;;5.88
72278;BMP280;61204;49.980;8.358;2022-12-20T15:13:47;100530.88;;;5.90
72278;BMP280;61204;49.980;8.358;2022-12-20T15:18:45;100510.91;;;5.95
72278;BMP280;61204;49.980;8.358;2022-12-20T15:23:55;100503.66;;;5.90
72278;BMP280;61204;49.980;8.358;2022-12-20T15:26:25;100504.91;;;5.66
72278;BMP280;61204;49.980;8.358;2022-12-20T15:28:51;100504.34;;;5.60
72278;BMP280;61204;49.980;8.358;2022-12-20T15:31:19;100498.53;;;5.63
72278;BMP280;61204;49.980;8.358;2022-12-20T15:33:48;100491.31;;;5.66
72278;BMP280;61204;49.980;8.358;2022-12-20T15:36:18;100499.81;;;5.62
72278;BMP280;61204;49.980;8.358;2022-12-20T15:38:49;100506.53;;;5.61
72278;BMP280;61204;49.980;8.358;2022-12-20T15:41:20;100505.44;;;5.57
72278;BMP280;61204;49.980;8.358;2022-12-20T15:43:56;100503.09;;;5.53
72278;BMP280;61204;49.980;8.358;2022-12-20T15:46:34;100497.44;;;5.51
72278;BMP280;61204;49.980;8.358;2022-12-20T15:48:59;100488.56;;;5.43
72278;BMP280;61204;49.980;8.358;2022-12-20T15:54:06;100489.03;;;5.26
72278;BMP280;61204;49.980;8.358;2022-12-20T15:56:40;100484.72;;;5.23
72278;BMP280;61204;49.980;8.358;2022-12-20T15:59:06;100475.28;;;5.24
72278;BMP280;61204;49.980;8.358;2022-12-20T16:01:35;100478.53;;;5.22
72278;BMP280;61204;49.980;8.358;2022-12-20T16:04:03;100483.06;;;5.20
72278;BMP280;61204;49.980;8.358;2022-12-20T16:06:30;100487.75;;;5.19
72278;BMP280;61204;49.980;8.358;2022-12-20T16:08:56;100491.00;;;5.18
72278;BMP280;61204;49.980;8.358;2022-12-20T16:11:23;100497.72;;;5.17
72278;BMP280;61204;49.980;8.358;2022-12-20T16:13:53;100510.03;;;5.18
72278;BMP280;61204;49.980;8.358;2022-12-20T16:16:22;100515.28;;;5.16
72278;BMP280;61204;49.980;8.358;2022-12-20T16:18:51;100514.56;;;5.15
72278;BMP280;61204;49.980;8.358;2022-12-20T16:23:47;100495.53;;;5.15
72278;BMP280;61204;49.980;8.358;2022-12-20T16:26:17;100496.25;;;5.16
72278;BMP280;61204;49.980;8.358;2022-12-20T16:28:45;100491.34;;;5.14
72278;BMP280;61204;49.980;8.358;2022-12-20T16:31:29;100499.31;;;5.12
72278;BMP280;61204;49.980;8.358;2022-12-20T16:33:59;100504.59;;;5.10
72278;BMP280;61204;49.980;8.358;2022-12-20T16:36:30;100502.03;;;5.12
72278;BMP280;61204;49.980;8.358;2022-12-20T16:38:57;100501.34;;;5.12
72278;BMP280;61204;49.980;8.358;2022-12-20T16:41:23;100504.75;;;5.12
72278;BMP280;61204;49.980;8.358;2022-12-20T16:43:54;100498.63;;;5.12
72278;BMP280;61204;49.980;8.358;2022-12-20T16:46:24;100498.25;;;5.08
72278;BMP280;61204;49.980;8.358;2022-12-20T16:48:51;100495.53;;;5.08
72278;BMP280;61204;49.980;8.358;2022-12-20T16:51:26;100496.25;;;5.08
72278;BMP280;61204;49.980;8.358;2022-12-20T16:54:19;100500.22;;;5.07
72278;BMP280;61204;49.980;8.358;2022-12-20T16:56:47;100488.63;;;5.07
72278;BMP280;61204;49.980;8.358;2022-12-20T16:59:19;100482.06;;;5.02